Etusivu
METAR-TAF:

METAR-TAF

Lentoasemat :

Örebro, Ruotsi

Örebron lentoasema

Leveyspiiri: 59-14N, Pituuspiiri: 015-03E, korkeus merenpinnasta: 57 m

Tämänhetkinen sää

Tämä raportti tehtiin 21 minuuttia sitten, kello 20.20 UTC
Tuuli 4 kn idästä
Lämpötila 18°C
Kosteus 68%
Ilmanpaine 1016 hPa
Näkyvyys 10 km tai enemmän
ei pilviä alle 1500 m:ssä eikä cumulonimbus-pilviä

METAR: ESOE 232020Z 08004KT CAVOK 18/12 Q1016

Aika: 22:41 (20:41 UTC)

Sääennuste

Tämä raportti tehtiin 11 minuuttia sitten, kello 20.30 UTC
Ennuste voimassa 23. päivästä klo 21 UTC - 24. päivään klo 06 UTC
Tuuli 5 kn idästä
Näkyvyys 10 km tai enemmän
ei pilviä alle 1500 m:ssä eikä cumulonimbus-pilviä

TAF: ESOE 232030Z 2321/2406 08005KT CAVOK

Säähavainnot ja -ennusteet yli 4000 lentoasemalta (METAR- ja TAF-raportit).

Käytössä olevat sääasemat on merkitty karttaan keltaisilla ja punaisilla pisteillä.

Aseta hiiri pisteen päälle nähdäksesi sääaseman nimen.

Klikkaa sitten nähdäksesi säähavainnot ja -ennusteet.

Kartan vaihtaminen: klikkaa mustalla rastilla varustettuja vihreitä pisteitä, niin voit zoomata sisään; viivalla varustettua vihreää pistettä, niin voit zoomata ulos tai vihreitä nuolia, niin pääset viereisille kartoille.


METAR-TAF: